createdAt,value
2022-12-15T00:01:09.678Z,-9.30
2022-12-15T00:06:29.946Z,-9.13
2022-12-15T00:11:51.378Z,-8.95
2022-12-15T00:17:11.567Z,-8.70
2022-12-15T00:22:31.634Z,-9.24
2022-12-15T00:27:52.793Z,-8.09
2022-12-15T00:33:13.145Z,-8.62
2022-12-15T00:38:33.769Z,-8.75
2022-12-15T00:43:37.991Z,-7.53
2022-12-15T00:48:43.573Z,-7.46
2022-12-15T00:54:03.740Z,-8.12
2022-12-15T00:59:25.862Z,-8.33
2022-12-15T01:04:46.572Z,-7.61
2022-12-15T01:10:07.012Z,-7.15
2022-12-15T01:15:29.070Z,-7.43
2022-12-15T01:20:34.601Z,-8.90
2022-12-15T01:25:39.032Z,-8.33
2022-12-15T01:30:42.967Z,-7.08
2022-12-15T01:35:45.608Z,-6.93
2022-12-15T01:40:51.799Z,-6.65
2022-12-15T01:45:57.777Z,-6.73
2022-12-15T01:51:03.343Z,-6.96
2022-12-15T01:56:06.928Z,-6.73
2022-12-15T02:01:11.360Z,-6.66
2022-12-15T02:06:19.105Z,-6.60
2022-12-15T02:11:33.496Z,-6.41
2022-12-15T02:16:44.927Z,-6.67
2022-12-15T02:21:50.866Z,-6.60
2022-12-15T02:27:03.890Z,-6.42
2022-12-15T02:32:16.005Z,-6.42
2022-12-15T02:37:24.081Z,-6.72
2022-12-15T02:42:27.899Z,-6.39
2022-12-15T02:47:37.936Z,-6.57
2022-12-15T02:52:53.787Z,-6.97
2022-12-15T02:58:04.865Z,-7.31
2022-12-15T03:03:09.665Z,-7.23
2022-12-15T03:08:12.192Z,-7.44
2022-12-15T03:13:15.120Z,-7.47
2022-12-15T03:18:19.037Z,-7.32
2022-12-15T03:23:23.070Z,-7.29
2022-12-15T03:28:25.600Z,-7.25
2022-12-15T03:33:29.842Z,-7.05
2022-12-15T03:38:32.736Z,-7.36
2022-12-15T03:43:35.364Z,-7.40
2022-12-15T03:48:39.312Z,-7.35
2022-12-15T03:53:41.878Z,-7.60
2022-12-15T03:58:47.379Z,-7.85
2022-12-15T04:03:55.514Z,-7.28
2022-12-15T04:09:01.107Z,-7.05
2022-12-15T04:14:04.712Z,-7.03
2022-12-15T04:19:26.698Z,-7.17
2022-12-15T04:24:47.820Z,-6.80
2022-12-15T04:30:08.088Z,-7.12
2022-12-15T04:35:30.362Z,-7.13
2022-12-15T04:40:50.722Z,-7.44
2022-12-15T04:46:10.896Z,-7.41
2022-12-15T04:51:32.261Z,-7.76
2022-12-15T04:56:52.231Z,-7.16
2022-12-15T05:02:12.216Z,-6.73
2022-12-15T05:07:33.838Z,-7.01
2022-12-15T05:12:54.043Z,-7.47
2022-12-15T05:18:14.306Z,-7.55
2022-12-15T05:23:36.026Z,-7.10
2022-12-15T05:28:56.232Z,-7.44
2022-12-15T05:34:04.917Z,-7.61
2022-12-15T05:39:09.677Z,-7.70
2022-12-15T05:44:12.472Z,-7.66
2022-12-15T05:49:16.204Z,-7.39
2022-12-15T05:54:20.947Z,-6.72
2022-12-15T05:59:23.679Z,-7.51
2022-12-15T06:04:26.313Z,-7.14
2022-12-15T06:09:30.475Z,-8.24
2022-12-15T06:14:32.985Z,-7.36
2022-12-15T06:19:35.516Z,-6.96
2022-12-15T06:24:39.410Z,-6.99
2022-12-15T06:29:41.846Z,-7.45
2022-12-15T06:34:44.751Z,-7.15
2022-12-15T06:39:48.768Z,-6.99
2022-12-15T06:44:51.214Z,-7.26
2022-12-15T06:49:53.806Z,-7.16
2022-12-15T06:54:58.033Z,-7.22
2022-12-15T07:00:01.927Z,-7.41
2022-12-15T07:05:05.688Z,-7.87
2022-12-15T07:10:11.167Z,-7.73
2022-12-15T07:15:13.915Z,-7.47
2022-12-15T07:20:16.540Z,-7.21
2022-12-15T07:25:20.833Z,-7.16
2022-12-15T07:30:26.031Z,-7.17
2022-12-15T07:35:28.667Z,-7.58
2022-12-15T07:40:32.492Z,-6.95
2022-12-15T07:45:35.111Z,-8.09
2022-12-15T07:50:37.891Z,-8.00
2022-12-15T07:56:05.611Z,-8.07
2022-12-15T08:01:06.078Z,-7.25
2022-12-15T08:06:10.017Z,-7.43
2022-12-15T08:11:14.883Z,-6.79
2022-12-15T08:16:17.403Z,-6.23
2022-12-15T08:21:20.238Z,-6.35
2022-12-15T08:26:30.086Z,-5.84
2022-12-15T08:31:33.880Z,-6.55
2022-12-15T08:36:36.418Z,-6.92
2022-12-15T08:41:41.645Z,-6.20
2022-12-15T08:46:44.258Z,-6.11
2022-12-15T08:51:46.948Z,-6.22
2022-12-15T08:56:54.618Z,-5.58
2022-12-15T09:01:57.325Z,-5.18
2022-12-15T09:07:00.486Z,-5.42
2022-12-15T09:12:04.502Z,-5.65
2022-12-15T09:17:07.654Z,-5.38
2022-12-15T09:22:10.491Z,-4.86
2022-12-15T09:26:02.128Z,-4.75
2022-12-15T09:27:04.703Z,-4.73
2022-12-15T09:28:07.512Z,-4.88
2022-12-15T09:29:12.782Z,-4.83
2022-12-15T09:30:15.908Z,-4.94
2022-12-15T09:31:21.199Z,-4.96
2022-12-15T09:32:23.969Z,-4.78
2022-12-15T09:33:26.932Z,-4.49
2022-12-15T09:34:29.913Z,-4.41
2022-12-15T09:35:32.569Z,-4.82
2022-12-15T09:36:35.707Z,-4.56
2022-12-15T09:37:38.130Z,-4.55
2022-12-15T09:38:42.478Z,-4.25
2022-12-15T09:39:45.744Z,-4.21
2022-12-15T09:40:49.998Z,-3.95
2022-12-15T09:41:57.285Z,-3.67
2022-12-15T09:43:25.613Z,-3.55
2022-12-15T09:44:23.762Z,-3.60
2022-12-15T09:45:33.941Z,-3.45
2022-12-15T09:46:59.986Z,-3.61
2022-12-15T09:48:05.932Z,-3.52
2022-12-15T09:49:15.150Z,-3.77
2022-12-15T09:50:21.126Z,-4.54
2022-12-15T09:51:34.267Z,-4.61
2022-12-15T09:52:49.043Z,-4.31
2022-12-15T09:53:56.189Z,-4.10
2022-12-15T09:55:01.606Z,-4.29
2022-12-15T09:56:08.113Z,-4.05
2022-12-15T09:57:20.990Z,-4.53
2022-12-15T09:58:40.617Z,-4.80
2022-12-15T09:59:59.907Z,-5.04
2022-12-15T10:01:13.619Z,-4.92
2022-12-15T10:02:36.602Z,-4.75
2022-12-15T10:03:52.175Z,-4.63
2022-12-15T10:05:05.336Z,-4.84
2022-12-15T10:06:16.665Z,-4.69
2022-12-15T10:07:29.820Z,-4.30
2022-12-15T10:08:36.603Z,-3.55
2022-12-15T10:09:39.534Z,-2.92
2022-12-15T10:10:51.050Z,-2.39
2022-12-15T10:11:58.794Z,-3.27
2022-12-15T10:13:10.684Z,-2.92
2022-12-15T10:14:23.859Z,-2.17
2022-12-15T10:15:29.449Z,-1.30
2022-12-15T10:16:38.651Z,-1.78
2022-12-15T10:17:50.300Z,-1.77
2022-12-15T10:19:01.960Z,-2.91
2022-12-15T10:20:15.572Z,-3.70
2022-12-15T10:21:17.425Z,-3.91
2022-12-15T10:22:24.213Z,-3.77
2022-12-15T10:23:26.034Z,-3.67
2022-12-15T10:25:08.076Z,-4.01
2022-12-15T10:26:00.753Z,-4.21
2022-12-15T10:27:16.482Z,-4.16
2022-12-15T10:29:00.289Z,-4.50
2022-12-15T10:30:05.542Z,-4.34
2022-12-15T10:31:16.255Z,-3.92
2022-12-15T10:32:20.501Z,-3.66
2022-12-15T10:33:26.265Z,-4.16
2022-12-15T10:34:30.541Z,-4.04
2022-12-15T10:35:35.091Z,-4.03
2022-12-15T10:36:37.020Z,-4.34
2022-12-15T10:37:40.112Z,-4.51
2022-12-15T10:38:45.428Z,-4.37
2022-12-15T10:39:50.229Z,-4.40
2022-12-15T10:40:59.550Z,-4.23
2022-12-15T10:42:14.895Z,-3.99
2022-12-15T10:43:35.695Z,-4.16
2022-12-15T10:44:41.473Z,-4.19
2022-12-15T10:45:44.705Z,-4.54
2022-12-15T10:46:47.283Z,-4.52
2022-12-15T10:47:58.977Z,-4.49
2022-12-15T10:49:23.042Z,-4.34
2022-12-15T10:50:27.591Z,-4.01
2022-12-15T10:51:32.552Z,-3.85
2022-12-15T10:52:39.057Z,-3.56
2022-12-15T10:53:45.012Z,-3.73
2022-12-15T10:54:55.586Z,-3.61
2022-12-15T10:56:01.392Z,-3.51
2022-12-15T10:57:16.972Z,-3.61
2022-12-15T10:58:22.390Z,-3.39
2022-12-15T10:59:26.253Z,-3.48
2022-12-15T11:00:30.765Z,-3.20
2022-12-15T11:01:35.905Z,-3.30
2022-12-15T11:02:38.016Z,-3.04
2022-12-15T11:03:41.845Z,-3.00
2022-12-15T11:04:57.111Z,-2.95
2022-12-15T11:06:01.074Z,-3.82
2022-12-15T11:07:05.267Z,-3.75
2022-12-15T11:08:16.843Z,-3.77
2022-12-15T11:09:29.551Z,-3.60
2022-12-15T11:10:54.185Z,-3.26
2022-12-15T11:12:14.285Z,-3.23
2022-12-15T11:13:17.924Z,-3.10
2022-12-15T11:14:24.179Z,-2.94
2022-12-15T11:15:50.845Z,-3.46
2022-12-15T11:16:55.270Z,-3.36
2022-12-15T11:18:02.720Z,-3.26
2022-12-15T11:19:09.051Z,-3.20
2022-12-15T11:20:21.822Z,-2.88
2022-12-15T11:21:28.940Z,-2.85
2022-12-15T11:22:40.760Z,-3.00
2022-12-15T11:23:53.742Z,-3.01
2022-12-15T11:25:03.063Z,-2.98
2022-12-15T11:26:13.808Z,-3.13
2022-12-15T11:27:20.929Z,-3.02
2022-12-15T11:28:31.639Z,-2.94
2022-12-15T11:29:45.900Z,-3.27
2022-12-15T11:30:57.449Z,-3.30
2022-12-15T11:32:06.675Z,-3.02
2022-12-15T11:33:11.073Z,-2.61
2022-12-15T11:34:17.376Z,-2.64
2022-12-15T11:35:26.838Z,-2.86
2022-12-15T11:36:57.994Z,-2.73
2022-12-15T11:38:10.210Z,-1.72
2022-12-15T11:39:21.419Z,-0.85
2022-12-15T11:40:34.346Z,-0.44
2022-12-15T11:41:45.154Z,0.40
2022-12-15T11:42:56.209Z,1.27
2022-12-15T11:44:17.486Z,1.67
2022-12-15T11:45:25.634Z,2.73
2022-12-15T11:46:31.668Z,3.79
2022-12-15T11:47:44.873Z,4.73
2022-12-15T11:49:09.514Z,5.44
2022-12-15T11:50:24.975Z,6.66
2022-12-15T11:51:38.834Z,7.59
2022-12-15T11:52:55.649Z,8.60
2022-12-15T11:54:14.788Z,7.84
2022-12-15T11:55:27.632Z,8.28
2022-12-15T11:56:36.307Z,7.75
2022-12-15T11:57:54.627Z,7.15
2022-12-15T11:59:25.911Z,8.53
2022-12-15T12:00:32.160Z,8.23
2022-12-15T12:01:58.780Z,7.64
2022-12-15T12:03:27.780Z,7.93
2022-12-15T12:04:40.362Z,7.13
2022-12-15T12:06:04.064Z,7.21
2022-12-15T12:07:15.688Z,6.73
2022-12-15T12:08:35.513Z,5.88
2022-12-15T12:09:48.682Z,5.28
2022-12-15T12:10:58.283Z,6.82
2022-12-15T12:12:13.364Z,6.99
2022-12-15T12:13:23.972Z,7.37
2022-12-15T12:14:38.050Z,8.62
2022-12-15T12:15:50.730Z,9.13
2022-12-15T12:17:01.665Z,9.71
2022-12-15T12:18:07.520Z,10.28
2022-12-15T12:19:14.540Z,10.20
2022-12-15T12:20:21.361Z,7.20
2022-12-15T12:21:28.177Z,6.32
2022-12-15T12:22:35.696Z,7.30
2022-12-15T12:23:46.185Z,9.04
2022-12-15T12:24:53.493Z,10.15
2022-12-15T12:26:05.846Z,9.96
2022-12-15T12:27:16.758Z,10.60
2022-12-15T12:28:25.063Z,10.68
2022-12-15T12:29:34.028Z,9.46
2022-12-15T12:30:45.393Z,10.16
2022-12-15T12:32:04.911Z,10.06
2022-12-15T12:33:17.037Z,9.92
2022-12-15T12:34:27.443Z,9.52
2022-12-15T12:35:38.528Z,9.89
2022-12-15T12:36:43.028Z,8.65
2022-12-15T12:37:54.175Z,8.46
2022-12-15T12:39:01.230Z,9.19
2022-12-15T12:40:08.676Z,10.45
2022-12-15T12:41:18.636Z,11.18
2022-12-15T12:42:26.407Z,10.92
2022-12-15T12:43:34.938Z,11.39
2022-12-15T12:44:39.244Z,11.52
2022-12-15T12:45:50.239Z,11.85
2022-12-15T12:46:56.326Z,11.82
2022-12-15T12:48:03.961Z,12.15
2022-12-15T12:49:14.666Z,12.47
2022-12-15T12:50:28.219Z,10.90
2022-12-15T12:51:32.505Z,11.07
2022-12-15T12:52:37.591Z,10.97
2022-12-15T12:53:42.002Z,11.45
2022-12-15T12:54:57.884Z,9.96
2022-12-15T12:56:01.843Z,7.24
2022-12-15T12:57:30.504Z,6.54
2022-12-15T12:58:38.358Z,5.94
2022-12-15T12:59:42.875Z,4.76
2022-12-15T13:01:06.418Z,5.32
2022-12-15T13:02:51.046Z,5.47
2022-12-15T13:04:07.630Z,5.79
2022-12-15T13:05:25.112Z,5.70
2022-12-15T13:07:02.380Z,5.05
2022-12-15T13:08:30.479Z,4.54
2022-12-15T13:09:42.330Z,4.54
2022-12-15T13:10:48.219Z,3.50
2022-12-15T13:11:58.939Z,3.49
2022-12-15T13:13:36.459Z,2.82
2022-12-15T13:16:19.017Z,1.44
2022-12-15T13:17:28.882Z,1.04
2022-12-15T13:19:03.390Z,0.52
2022-12-15T13:20:30.971Z,0.28
2022-12-15T13:21:56.059Z,0.44
2022-12-15T13:23:32.440Z,-0.47
2022-12-15T13:24:37.461Z,-1.23
2022-12-15T13:25:41.900Z,-1.30
2022-12-15T13:26:48.572Z,-0.93
2022-12-15T13:27:52.676Z,-0.61
2022-12-15T13:28:57.951Z,-0.40
2022-12-15T13:30:01.815Z,-0.39
2022-12-15T13:31:28.567Z,-1.07
2022-12-15T13:32:36.740Z,-1.25
2022-12-15T13:33:45.537Z,-1.06
2022-12-15T13:34:48.193Z,-0.86
2022-12-15T13:35:51.758Z,-0.51
2022-12-15T13:37:27.233Z,-0.72
2022-12-15T13:38:53.653Z,-0.85
2022-12-15T13:40:00.414Z,-1.09
2022-12-15T13:41:22.587Z,-0.79
2022-12-15T13:42:45.628Z,-0.85
2022-12-15T13:43:56.039Z,-1.20
2022-12-15T13:45:38.025Z,-1.26
2022-12-15T13:46:43.492Z,-1.15
2022-12-15T13:47:53.621Z,-1.31
2022-12-15T13:49:07.737Z,-0.95
2022-12-15T13:50:15.258Z,-0.60
2022-12-15T13:51:25.048Z,-0.34
2022-12-15T13:53:16.339Z,-0.40
2022-12-15T13:53:59.364Z,-0.29
2022-12-15T13:55:03.519Z,-0.01
2022-12-15T13:56:35.014Z,-0.10
2022-12-15T13:57:52.526Z,-0.31
2022-12-15T13:59:02.487Z,-0.75
2022-12-15T14:00:18.327Z,-0.50
2022-12-15T14:01:32.765Z,-0.43
2022-12-15T14:02:37.928Z,-0.95
2022-12-15T14:03:40.841Z,-0.94
2022-12-15T14:04:43.450Z,-1.20
2022-12-15T14:05:51.206Z,-1.33
2022-12-15T14:06:56.011Z,-1.62
2022-12-15T14:08:00.760Z,-1.56
2022-12-15T14:09:03.911Z,-2.05
2022-12-15T14:10:16.811Z,-1.88
2022-12-15T14:11:51.219Z,-1.44
2022-12-15T14:12:52.021Z,-1.22
2022-12-15T14:13:54.715Z,-1.02
2022-12-15T14:14:57.457Z,-1.48
2022-12-15T14:16:04.038Z,-1.50
2022-12-15T14:17:09.694Z,-1.36
2022-12-15T14:18:26.719Z,-1.32
2022-12-15T14:19:38.842Z,-1.84
2022-12-15T14:20:42.121Z,-1.69
2022-12-15T14:21:50.361Z,-1.57
2022-12-15T14:22:54.459Z,-1.58
2022-12-15T14:24:36.343Z,-1.45
2022-12-15T14:25:23.598Z,-1.37
2022-12-15T14:26:30.722Z,-1.30
2022-12-15T14:27:34.822Z,-1.11
2022-12-15T14:28:40.501Z,-1.02
2022-12-15T14:29:42.091Z,-1.08
2022-12-15T14:30:44.810Z,-1.13
2022-12-15T14:31:51.633Z,-1.28
2022-12-15T14:32:58.879Z,-1.20
2022-12-15T14:34:04.611Z,-1.09
2022-12-15T14:35:13.802Z,-0.85
2022-12-15T14:36:18.622Z,-0.73
2022-12-15T14:37:21.107Z,-0.83
2022-12-15T14:38:27.365Z,-0.72
2022-12-15T14:39:37.016Z,-0.73
2022-12-15T14:40:42.380Z,-0.62
2022-12-15T14:41:48.925Z,-0.67
2022-12-15T14:42:53.986Z,-0.66
2022-12-15T14:44:36.196Z,-0.61
2022-12-15T14:45:32.189Z,-0.73
2022-12-15T14:46:35.099Z,-0.70
2022-12-15T14:47:37.189Z,-0.78
2022-12-15T14:48:43.015Z,-0.76
2022-12-15T14:49:48.106Z,-0.71
2022-12-15T14:50:51.252Z,-1.02
2022-12-15T14:52:02.787Z,-1.49
2022-12-15T14:53:14.361Z,-1.44
2022-12-15T14:54:30.724Z,-1.30
2022-12-15T14:55:35.302Z,-1.22
2022-12-15T14:56:37.924Z,-1.26
2022-12-15T14:57:44.245Z,-1.29
2022-12-15T14:58:47.333Z,-1.16
2022-12-15T14:59:53.035Z,-1.07
2022-12-15T15:00:57.324Z,-1.07
2022-12-15T15:02:03.778Z,-1.13
2022-12-15T15:03:10.416Z,1.08
2022-12-15T15:03:20.298Z,-1.41
2022-12-15T15:04:26.279Z,-1.74
2022-12-15T15:05:29.180Z,-1.86
2022-12-15T15:06:37.468Z,-1.67
2022-12-15T15:07:40.752Z,-1.65
2022-12-15T15:08:46.397Z,-1.63
2022-12-15T15:09:49.133Z,-2.21
2022-12-15T15:10:54.181Z,-2.52
2022-12-15T15:12:00.806Z,-2.91
2022-12-15T15:13:04.081Z,-2.86
2022-12-15T15:14:10.884Z,-3.03
2022-12-15T15:15:19.556Z,-3.07
2022-12-15T15:16:21.326Z,-2.95
2022-12-15T15:17:27.175Z,-2.99
2022-12-15T15:18:29.794Z,-2.98
2022-12-15T15:19:39.096Z,-3.02
2022-12-15T15:20:42.273Z,-2.84
2022-12-15T15:21:45.745Z,-3.41
2022-12-15T15:23:03.844Z,-3.52
2022-12-15T15:24:26.012Z,-2.97
2022-12-15T15:25:39.949Z,-2.88
2022-12-15T15:26:44.123Z,-2.80
2022-12-15T15:27:46.829Z,-3.17
2022-12-15T15:28:49.463Z,-3.80
2022-12-15T15:29:51.496Z,-3.82
2022-12-15T15:30:58.049Z,-3.80
2022-12-15T15:32:07.717Z,-3.76
2022-12-15T15:33:12.805Z,-3.67
2022-12-15T15:34:15.550Z,-3.76
2022-12-15T15:35:17.517Z,-3.79
2022-12-15T15:36:20.200Z,-4.08
2022-12-15T15:37:26.392Z,-4.33
2022-12-15T15:38:34.885Z,-4.19
2022-12-15T15:39:38.302Z,-3.84
2022-12-15T15:40:41.339Z,-3.53
2022-12-15T15:41:43.936Z,-4.28
2022-12-15T15:42:46.777Z,-4.87
2022-12-15T15:43:49.364Z,-4.47
2022-12-15T15:44:51.933Z,-4.20
2022-12-15T15:46:02.751Z,-3.90
2022-12-15T15:47:05.986Z,-3.76
2022-12-15T15:48:11.868Z,-3.72
2022-12-15T15:49:17.905Z,-3.50
2022-12-15T15:50:27.719Z,-3.35
2022-12-15T15:51:32.955Z,-3.22
2022-12-15T15:52:34.716Z,-3.23
2022-12-15T15:53:38.703Z,-3.22
2022-12-15T15:54:40.400Z,-3.40
2022-12-15T15:55:44.257Z,-3.60
2022-12-15T15:56:46.272Z,-4.78
2022-12-15T15:57:48.831Z,-5.42
2022-12-15T15:58:51.489Z,-5.23
2022-12-15T15:59:54.078Z,-5.26
2022-12-15T16:00:58.121Z,-5.56
2022-12-15T16:02:00.642Z,-5.82
2022-12-15T16:03:03.508Z,-5.98
2022-12-15T16:04:07.463Z,-6.00
2022-12-15T16:05:10.420Z,-5.70
2022-12-15T16:06:17.961Z,-5.49
2022-12-15T16:07:25.210Z,-5.33
2022-12-15T16:08:32.940Z,-5.49
2022-12-15T16:09:35.843Z,-5.39
2022-12-15T16:10:38.498Z,-5.36
2022-12-15T16:11:40.526Z,-5.20
2022-12-15T16:12:46.485Z,-4.99
2022-12-15T16:13:48.774Z,-4.92
2022-12-15T16:14:51.563Z,-4.79
2022-12-15T16:15:54.250Z,-4.61
2022-12-15T16:16:57.629Z,-4.63
2022-12-15T16:18:00.428Z,-4.76
2022-12-15T16:19:03.433Z,-4.99
2022-12-15T16:20:07.274Z,-4.99
2022-12-15T16:21:13.979Z,-4.72
2022-12-15T16:22:18.387Z,-4.56
2022-12-15T16:23:23.733Z,-4.49
2022-12-15T16:24:25.640Z,-4.63
2022-12-15T16:25:39.019Z,-5.03
2022-12-15T16:26:50.018Z,-4.92
2022-12-15T16:27:51.624Z,-4.87
2022-12-15T16:28:54.217Z,-4.64
2022-12-15T16:29:55.956Z,-4.38
2022-12-15T16:31:01.267Z,-4.21
2022-12-15T16:32:04.685Z,-4.18
2022-12-15T16:33:07.591Z,-4.18
2022-12-15T16:34:09.388Z,-4.27
2022-12-15T16:35:12.758Z,-4.29
2022-12-15T16:36:15.427Z,-4.75
2022-12-15T16:37:25.818Z,-5.09
2022-12-15T16:38:31.098Z,-5.33
2022-12-15T16:39:35.019Z,-5.76
2022-12-15T16:40:39.596Z,-6.02
2022-12-15T16:41:41.168Z,-5.81
2022-12-15T16:42:43.998Z,-5.40
2022-12-15T16:43:48.305Z,-5.08
2022-12-15T16:44:51.302Z,-4.88
2022-12-15T16:45:54.557Z,-4.85
2022-12-15T16:46:59.102Z,-4.79
2022-12-15T16:48:03.987Z,-5.08
2022-12-15T16:49:05.893Z,-5.88
2022-12-15T16:50:13.355Z,-6.41
2022-12-15T16:51:27.167Z,-6.11
2022-12-15T16:52:30.100Z,-5.60
2022-12-15T16:53:35.302Z,-5.35
2022-12-15T16:54:37.016Z,-5.16
2022-12-15T16:55:40.278Z,-5.37
2022-12-15T16:56:43.794Z,-5.37
2022-12-15T16:57:47.417Z,-5.24
2022-12-15T16:58:57.420Z,-5.49
2022-12-15T17:00:16.431Z,-6.19
2022-12-15T17:01:18.125Z,-6.64
2022-12-15T17:02:27.236Z,-6.30
2022-12-15T17:03:31.931Z,-5.98
2022-12-15T17:04:33.723Z,-5.71
2022-12-15T17:05:37.533Z,-5.65
2022-12-15T17:06:39.477Z,-5.83
2022-12-15T17:07:43.121Z,-6.47
2022-12-15T17:08:49.065Z,-7.28
2022-12-15T17:09:51.107Z,-6.95
2022-12-15T17:10:54.503Z,-6.43
2022-12-15T17:11:58.113Z,-6.74
2022-12-15T17:13:05.760Z,-6.53
2022-12-15T17:14:11.317Z,-6.42
2022-12-15T17:15:22.901Z,-6.03
2022-12-15T17:16:27.013Z,-5.83
2022-12-15T17:17:31.164Z,-5.63
2022-12-15T17:18:35.310Z,-5.76
2022-12-15T17:19:37.180Z,-5.90
2022-12-15T17:20:54.290Z,-5.62
2022-12-15T17:21:57.613Z,-5.68
2022-12-15T17:23:03.807Z,-5.67
2022-12-15T17:24:10.074Z,-5.48
2022-12-15T17:25:27.395Z,-5.90
2022-12-15T17:26:43.295Z,-5.78
2022-12-15T17:27:47.545Z,-5.58
2022-12-15T17:28:50.674Z,-6.07
2022-12-15T17:29:53.349Z,-6.05
2022-12-15T17:30:57.536Z,-5.94
2022-12-15T17:31:59.634Z,-5.67
2022-12-15T17:33:02.288Z,-5.62
2022-12-15T17:34:28.358Z,-5.79
2022-12-15T17:35:30.958Z,-6.63
2022-12-15T17:36:32.803Z,-6.87
2022-12-15T17:37:35.672Z,-7.12
2022-12-15T17:38:38.352Z,-7.21
2022-12-15T17:39:41.922Z,-7.44
2022-12-15T17:40:44.813Z,-7.53
2022-12-15T17:42:04.339Z,-7.57
2022-12-15T17:43:13.828Z,-7.81
2022-12-15T17:44:38.373Z,-7.89
2022-12-15T17:45:41.699Z,-8.02
2022-12-15T17:46:44.361Z,-8.21
2022-12-15T17:47:47.507Z,-8.22
2022-12-15T17:48:50.252Z,-8.26
2022-12-15T17:49:54.171Z,-8.36
2022-12-15T17:50:56.763Z,-8.20
2022-12-15T17:52:01.660Z,-7.99
2022-12-15T17:53:06.277Z,-7.48
2022-12-15T17:54:09.821Z,-7.11
2022-12-15T17:55:20.270Z,-6.82
2022-12-15T17:56:22.886Z,-6.79
2022-12-15T17:57:25.785Z,-6.95
2022-12-15T17:58:28.453Z,-6.82
2022-12-15T17:59:33.621Z,-6.53
2022-12-15T18:00:44.464Z,-6.46
2022-12-15T18:01:52.132Z,-6.39
2022-12-15T18:02:59.158Z,-6.39
2022-12-15T18:04:05.029Z,-6.86
2022-12-15T18:05:09.342Z,-7.46
2022-12-15T18:06:15.386Z,-7.76
2022-12-15T18:07:19.831Z,-8.16
2022-12-15T18:08:24.308Z,-8.02
2022-12-15T18:09:29.514Z,-8.23
2022-12-15T18:10:34.539Z,-8.35
2022-12-15T18:11:37.083Z,-8.47
2022-12-15T18:12:38.704Z,-8.49
2022-12-15T18:13:42.059Z,-8.47
2022-12-15T18:14:44.495Z,-8.51
2022-12-15T18:15:50.255Z,-8.65
2022-12-15T18:16:52.017Z,-8.81
2022-12-15T18:17:54.664Z,-8.95
2022-12-15T18:18:57.430Z,-8.73
2022-12-15T18:19:58.986Z,-8.55
2022-12-15T18:21:09.006Z,-8.67
2022-12-15T18:22:13.382Z,-8.78
2022-12-15T18:23:17.822Z,-9.01
2022-12-15T18:24:21.568Z,-9.17
2022-12-15T18:25:26.868Z,-9.25
2022-12-15T18:26:28.733Z,-9.32
2022-12-15T18:27:31.372Z,-9.23
2022-12-15T18:28:37.944Z,-9.21
2022-12-15T18:29:39.520Z,-9.00
2022-12-15T18:30:42.204Z,-8.67
2022-12-15T18:31:45.435Z,-8.41
2022-12-15T18:32:48.779Z,-8.22
2022-12-15T18:33:51.518Z,-7.92
2022-12-15T18:34:53.869Z,-7.70
2022-12-15T18:35:56.514Z,-7.53
2022-12-15T18:36:59.532Z,-7.41
2022-12-15T18:38:02.156Z,-7.94
2022-12-15T18:39:17.018Z,-8.01
2022-12-15T18:40:21.952Z,-8.28
2022-12-15T18:41:24.617Z,-8.07
2022-12-15T18:42:26.272Z,-7.83
2022-12-15T18:43:32.166Z,-7.52
2022-12-15T18:44:34.437Z,-7.59
2022-12-15T18:45:37.032Z,-8.21
2022-12-15T18:46:42.058Z,-8.38
2022-12-15T18:47:49.404Z,-8.49
2022-12-15T18:48:55.980Z,-8.37
2022-12-15T18:49:57.623Z,-8.43
2022-12-15T18:51:03.394Z,-8.06
2022-12-15T18:52:13.633Z,-7.84
2022-12-15T18:53:19.698Z,-7.51
2022-12-15T18:54:23.371Z,-7.25
2022-12-15T18:55:28.301Z,-7.33
2022-12-15T18:56:30.994Z,-7.08
2022-12-15T18:57:35.880Z,-6.89
2022-12-15T18:58:40.359Z,-6.79
2022-12-15T18:59:41.937Z,-6.72
2022-12-15T19:00:45.127Z,-6.61
2022-12-15T19:01:49.368Z,-6.58
2022-12-15T19:02:53.168Z,-6.75
2022-12-15T19:03:56.054Z,-6.93
2022-12-15T19:04:57.758Z,-7.02
2022-12-15T19:06:03.147Z,-6.98
2022-12-15T19:07:07.645Z,-7.71
2022-12-15T19:08:13.267Z,-8.18
2022-12-15T19:09:19.698Z,-8.63
2022-12-15T19:10:21.376Z,-8.87
2022-12-15T19:11:31.131Z,-8.88
2022-12-15T19:12:32.851Z,-8.30
2022-12-15T19:13:38.827Z,-8.07
2022-12-15T19:14:40.501Z,-7.76
2022-12-15T19:15:43.737Z,-7.51
2022-12-15T19:17:06.580Z,-7.20
2022-12-15T19:18:32.247Z,-7.03
2022-12-15T19:19:54.685Z,-6.92
2022-12-15T19:21:14.806Z,-7.47
2022-12-15T19:22:28.017Z,-7.63
2022-12-15T19:23:31.128Z,-7.45
2022-12-15T19:24:51.688Z,-7.35
2022-12-15T19:25:55.146Z,-7.72
2022-12-15T19:26:56.732Z,-7.64
2022-12-15T19:28:01.284Z,-7.83
2022-12-15T19:29:15.837Z,-8.11
2022-12-15T19:30:20.663Z,-8.64
2022-12-15T19:31:23.281Z,-8.82
2022-12-15T19:32:25.757Z,-8.27
2022-12-15T19:33:28.377Z,-7.96
2022-12-15T19:34:31.242Z,-7.66
2022-12-15T19:35:33.371Z,-7.53
2022-12-15T19:36:37.082Z,-7.37
2022-12-15T19:37:45.523Z,-7.32
2022-12-15T19:38:48.395Z,-7.32
2022-12-15T19:39:50.549Z,-7.36
2022-12-15T19:40:54.717Z,-7.24
2022-12-15T19:41:57.436Z,-7.11
2022-12-15T19:43:00.233Z,-7.54
2022-12-15T19:44:02.989Z,-8.42
2022-12-15T19:45:14.927Z,-8.69
2022-12-15T19:46:19.759Z,-8.75
2022-12-15T19:47:21.350Z,-8.87
2022-12-15T19:48:24.610Z,-8.54
2022-12-15T19:49:26.265Z,-8.26
2022-12-15T19:50:36.236Z,-8.21
2022-12-15T19:51:40.673Z,-8.45
2022-12-15T19:52:47.160Z,-8.63
2022-12-15T19:53:50.669Z,-8.55
2022-12-15T19:54:52.334Z,-8.19
2022-12-15T19:55:57.838Z,-8.30
2022-12-15T19:56:59.617Z,-8.17
2022-12-15T19:58:06.534Z,-8.15
2022-12-15T19:59:18.238Z,-7.97
2022-12-15T20:00:22.039Z,-8.09
2022-12-15T20:01:24.738Z,-7.93
2022-12-15T20:02:26.582Z,-7.84
2022-12-15T20:03:31.113Z,-8.43
2022-12-15T20:04:34.004Z,-8.71
2022-12-15T20:05:36.936Z,-8.76
2022-12-15T20:06:40.622Z,-9.12
2022-12-15T20:07:43.883Z,-9.17
2022-12-15T20:08:48.693Z,-9.15
2022-12-15T20:09:50.372Z,-9.19
2022-12-15T20:10:54.936Z,-9.30
2022-12-15T20:11:56.546Z,-8.98
2022-12-15T20:12:59.623Z,-8.97
2022-12-15T20:14:03.093Z,-9.17
2022-12-15T20:15:15.757Z,-8.93
2022-12-15T20:16:20.704Z,-8.67
2022-12-15T20:17:22.311Z,-8.55
2022-12-15T20:18:24.910Z,-8.16
2022-12-15T20:19:27.490Z,-7.95
2022-12-15T20:20:30.966Z,-7.77
2022-12-15T20:21:37.092Z,-7.63
2022-12-15T20:22:38.754Z,-7.42
2022-12-15T20:23:50.311Z,-7.64
2022-12-15T20:24:52.995Z,-7.69
2022-12-15T20:25:56.265Z,-8.33
2022-12-15T20:26:58.214Z,-8.21
2022-12-15T20:28:01.502Z,-8.09
2022-12-15T20:29:04.414Z,-8.32
2022-12-15T20:30:08.753Z,-8.13
2022-12-15T20:31:15.897Z,-8.29
2022-12-15T20:32:20.771Z,-8.61
2022-12-15T20:33:23.578Z,-8.66
2022-12-15T20:34:25.364Z,-8.64
2022-12-15T20:35:28.506Z,-8.95
2022-12-15T20:36:31.577Z,-8.99
2022-12-15T20:37:33.288Z,-9.28
2022-12-15T20:38:36.915Z,-9.08
2022-12-15T20:39:40.206Z,-8.98
2022-12-15T20:40:42.920Z,-8.63
2022-12-15T20:41:47.439Z,-8.56
2022-12-15T20:42:50.647Z,-8.81
2022-12-15T20:43:54.848Z,-8.66
2022-12-15T20:44:56.396Z,-8.46
2022-12-15T20:46:03.380Z,-8.25
2022-12-15T20:47:06.263Z,-8.21
2022-12-15T20:48:13.027Z,-7.98
2022-12-15T20:49:18.547Z,-7.77
2022-12-15T20:50:27.032Z,-7.57
2022-12-15T20:51:31.452Z,-7.85
2022-12-15T20:52:33.465Z,-8.47
2022-12-15T20:53:36.085Z,-8.23
2022-12-15T20:54:38.769Z,-8.25
2022-12-15T20:55:42.999Z,-8.37
2022-12-15T20:56:46.086Z,-8.73
2022-12-15T20:57:48.087Z,-8.36
2022-12-15T20:58:50.789Z,-8.17
2022-12-15T20:59:53.821Z,-8.37
2022-12-15T21:00:56.469Z,-8.55
2022-12-15T21:01:59.174Z,-8.52
2022-12-15T21:03:01.139Z,-8.52
2022-12-15T21:04:25.899Z,-8.52
2022-12-15T21:05:28.506Z,-8.25
2022-12-15T21:06:31.987Z,-8.07
2022-12-15T21:07:33.666Z,-8.19
2022-12-15T21:08:36.411Z,-7.88
2022-12-15T21:09:38.083Z,-7.67
2022-12-15T21:10:42.009Z,-8.17
2022-12-15T21:11:45.996Z,-8.20
2022-12-15T21:12:50.548Z,-8.03
2022-12-15T21:13:53.854Z,-8.12
2022-12-15T21:14:56.433Z,-8.16
2022-12-15T21:16:00.428Z,-8.09
2022-12-15T21:17:03.265Z,-8.26
2022-12-15T21:18:51.964Z,-7.91
2022-12-15T21:19:34.764Z,-7.78
2022-12-15T21:20:39.778Z,-7.69
2022-12-15T21:21:45.422Z,-7.60
2022-12-15T21:22:48.096Z,-7.66
2022-12-15T21:23:49.875Z,-7.64
2022-12-15T21:24:56.206Z,-7.66
2022-12-15T21:26:03.969Z,-7.45
2022-12-15T21:27:07.335Z,-7.43
2022-12-15T21:28:11.394Z,-7.35
2022-12-15T21:29:15.979Z,-7.26
2022-12-15T21:30:21.597Z,-7.19
2022-12-15T21:31:24.714Z,-7.16
2022-12-15T21:32:26.431Z,-7.18
2022-12-15T21:33:29.046Z,-7.34
2022-12-15T21:34:32.664Z,-7.43
2022-12-15T21:35:37.466Z,-7.81
2022-12-15T21:36:41.602Z,-8.22
2022-12-15T21:37:47.025Z,-8.33
2022-12-15T21:38:50.843Z,-8.43
2022-12-15T21:39:55.281Z,-8.59
2022-12-15T21:41:01.561Z,-8.83
2022-12-15T21:42:06.473Z,-9.01
2022-12-15T21:43:11.751Z,-8.82
2022-12-15T21:44:14.182Z,-9.07
2022-12-15T21:45:19.310Z,-9.49
2022-12-15T21:46:28.400Z,-9.49
2022-12-15T21:48:00.334Z,-9.16
2022-12-15T21:49:18.438Z,-8.67
2022-12-15T21:50:20.351Z,-8.36
2022-12-15T21:51:23.026Z,-8.40
2022-12-15T21:52:27.503Z,-8.87
2022-12-15T21:53:30.292Z,-9.12
2022-12-15T21:54:38.444Z,-9.44